sensor_id;sensor_type;location;lat;lon;timestamp;P1;durP1;ratioP1;P2;durP2;ratioP2
13321;SDS011;6730;46.248;6.930;2023-05-10T00:00:38;0.38;;;0.38;;
13321;SDS011;6730;46.248;6.930;2023-05-10T00:03:04;7.20;;;0.68;;
13321;SDS011;6730;46.248;6.930;2023-05-10T00:05:30;3.17;;;0.40;;
13321;SDS011;6730;46.248;6.930;2023-05-10T00:07:56;0.38;;;0.20;;
13321;SDS011;6730;46.248;6.930;2023-05-10T00:10:22;0.73;;;0.30;;
13321;SDS011;6730;46.248;6.930;2023-05-10T00:12:48;1.17;;;0.45;;
13321;SDS011;6730;46.248;6.930;2023-05-10T00:15:13;2.83;;;0.70;;
13321;SDS011;6730;46.248;6.930;2023-05-10T00:17:39;0.45;;;0.40;;
13321;SDS011;6730;46.248;6.930;2023-05-10T00:20:05;3.90;;;0.40;;
13321;SDS011;6730;46.248;6.930;2023-05-10T00:22:31;3.97;;;0.70;;
13321;SDS011;6730;46.248;6.930;2023-05-10T00:24:58;1.65;;;0.50;;
13321;SDS011;6730;46.248;6.930;2023-05-10T00:27:24;1.05;;;0.30;;
13321;SDS011;6730;46.248;6.930;2023-05-10T00:29:49;0.40;;;0.40;;
13321;SDS011;6730;46.248;6.930;2023-05-10T00:32:15;1.63;;;0.38;;
13321;SDS011;6730;46.248;6.930;2023-05-10T00:34:41;0.47;;;0.25;;
13321;SDS011;6730;46.248;6.930;2023-05-10T00:37:07;0.32;;;0.32;;
13321;SDS011;6730;46.248;6.930;2023-05-10T00:39:33;1.38;;;0.70;;
13321;SDS011;6730;46.248;6.930;2023-05-10T00:41:59;0.35;;;0.30;;
13321;SDS011;6730;46.248;6.930;2023-05-10T00:44:25;1.45;;;0.30;;
13321;SDS011;6730;46.248;6.930;2023-05-10T00:46:50;1.48;;;0.50;;
13321;SDS011;6730;46.248;6.930;2023-05-10T00:49:17;0.40;;;0.40;;
13321;SDS011;6730;46.248;6.930;2023-05-10T00:51:43;4.22;;;0.43;;
13321;SDS011;6730;46.248;6.930;2023-05-10T00:54:10;0.22;;;0.22;;
13321;SDS011;6730;46.248;6.930;2023-05-10T00:56:39;1.77;;;0.22;;
13321;SDS011;6730;46.248;6.930;2023-05-10T00:59:05;0.17;;;0.17;;
13321;SDS011;6730;46.248;6.930;2023-05-10T01:01:31;0.15;;;0.15;;
13321;SDS011;6730;46.248;6.930;2023-05-10T01:03:57;0.30;;;0.30;;
13321;SDS011;6730;46.248;6.930;2023-05-10T01:06:23;0.88;;;0.32;;
13321;SDS011;6730;46.248;6.930;2023-05-10T01:08:49;1.38;;;0.30;;
13321;SDS011;6730;46.248;6.930;2023-05-10T01:11:15;0.35;;;0.35;;
13321;SDS011;6730;46.248;6.930;2023-05-10T01:13:42;0.52;;;0.32;;
13321;SDS011;6730;46.248;6.930;2023-05-10T01:16:08;1.33;;;0.43;;
13321;SDS011;6730;46.248;6.930;2023-05-10T01:18:38;0.52;;;0.40;;
13321;SDS011;6730;46.248;6.930;2023-05-10T01:21:15;3.13;;;0.52;;
13321;SDS011;6730;46.248;6.930;2023-05-10T01:35:38;0.30;;;0.30;;
13321;SDS011;6730;46.248;6.930;2023-05-10T01:38:38;1.63;;;0.55;;
13321;SDS011;6730;46.248;6.930;2023-05-10T01:41:33;0.85;;;0.40;;
13321;SDS011;6730;46.248;6.930;2023-05-10T01:46:38;0.47;;;0.47;;
13321;SDS011;6730;46.248;6.930;2023-05-10T01:49:07;2.17;;;0.57;;
13321;SDS011;6730;46.248;6.930;2023-05-10T01:51:44;1.20;;;0.60;;
13321;SDS011;6730;46.248;6.930;2023-05-10T01:54:13;0.57;;;0.38;;
13321;SDS011;6730;46.248;6.930;2023-05-10T01:56:42;2.22;;;0.55;;
13321;SDS011;6730;46.248;6.930;2023-05-10T01:59:12;0.40;;;0.40;;
13321;SDS011;6730;46.248;6.930;2023-05-10T02:01:41;0.40;;;0.40;;
13321;SDS011;6730;46.248;6.930;2023-05-10T02:04:10;0.28;;;0.28;;
13321;SDS011;6730;46.248;6.930;2023-05-10T02:06:39;0.43;;;0.40;;
13321;SDS011;6730;46.248;6.930;2023-05-10T02:09:06;0.77;;;0.50;;
13321;SDS011;6730;46.248;6.930;2023-05-10T02:11:34;0.40;;;0.40;;
13321;SDS011;6730;46.248;6.930;2023-05-10T02:14:02;0.40;;;0.40;;
13321;SDS011;6730;46.248;6.930;2023-05-10T02:16:28;0.40;;;0.40;;
13321;SDS011;6730;46.248;6.930;2023-05-10T02:18:55;2.17;;;0.47;;
13321;SDS011;6730;46.248;6.930;2023-05-10T02:21:24;1.08;;;0.50;;
13321;SDS011;6730;46.248;6.930;2023-05-10T02:23:51;1.48;;;0.35;;
13321;SDS011;6730;46.248;6.930;2023-05-10T02:26:18;0.40;;;0.35;;
13321;SDS011;6730;46.248;6.930;2023-05-10T02:28:48;1.35;;;0.70;;
13321;SDS011;6730;46.248;6.930;2023-05-10T02:31:15;1.15;;;0.40;;
13321;SDS011;6730;46.248;6.930;2023-05-10T02:33:41;0.40;;;0.35;;
13321;SDS011;6730;46.248;6.930;2023-05-10T02:36:08;1.17;;;0.30;;
13321;SDS011;6730;46.248;6.930;2023-05-10T02:38:35;2.67;;;0.30;;
13321;SDS011;6730;46.248;6.930;2023-05-10T02:41:02;3.33;;;0.63;;
13321;SDS011;6730;46.248;6.930;2023-05-10T02:43:30;0.80;;;0.40;;
13321;SDS011;6730;46.248;6.930;2023-05-10T02:45:58;0.30;;;0.30;;
13321;SDS011;6730;46.248;6.930;2023-05-10T02:48:24;3.22;;;0.50;;
13321;SDS011;6730;46.248;6.930;2023-05-10T02:50:50;0.38;;;0.38;;
13321;SDS011;6730;46.248;6.930;2023-05-10T02:53:20;0.57;;;0.50;;
13321;SDS011;6730;46.248;6.930;2023-05-10T02:55:49;0.40;;;0.40;;
13321;SDS011;6730;46.248;6.930;2023-05-10T02:58:17;4.40;;;0.80;;
13321;SDS011;6730;46.248;6.930;2023-05-10T03:00:44;0.30;;;0.30;;
13321;SDS011;6730;46.248;6.930;2023-05-10T03:03:11;0.40;;;0.40;;
13321;SDS011;6730;46.248;6.930;2023-05-10T03:05:38;0.70;;;0.70;;
13321;SDS011;6730;46.248;6.930;2023-05-10T03:08:04;0.50;;;0.50;;
13321;SDS011;6730;46.248;6.930;2023-05-10T03:10:31;0.38;;;0.30;;
13321;SDS011;6730;46.248;6.930;2023-05-10T03:18:48;1.30;;;0.47;;
13321;SDS011;6730;46.248;6.930;2023-05-10T03:21:20;0.35;;;0.30;;
13321;SDS011;6730;46.248;6.930;2023-05-10T03:23:56;1.52;;;0.50;;
13321;SDS011;6730;46.248;6.930;2023-05-10T03:26:27;0.57;;;0.57;;
13321;SDS011;6730;46.248;6.930;2023-05-10T03:28:53;0.80;;;0.70;;
13321;SDS011;6730;46.248;6.930;2023-05-10T03:31:20;0.45;;;0.45;;
13321;SDS011;6730;46.248;6.930;2023-05-10T03:33:46;1.13;;;0.40;;
13321;SDS011;6730;46.248;6.930;2023-05-10T03:36:13;0.47;;;0.40;;
13321;SDS011;6730;46.248;6.930;2023-05-10T03:38:39;0.75;;;0.65;;
13321;SDS011;6730;46.248;6.930;2023-05-10T03:41:04;0.73;;;0.55;;
13321;SDS011;6730;46.248;6.930;2023-05-10T03:43:30;0.30;;;0.30;;
13321;SDS011;6730;46.248;6.930;2023-05-10T03:45:55;0.43;;;0.40;;
13321;SDS011;6730;46.248;6.930;2023-05-10T03:48:21;0.55;;;0.40;;
13321;SDS011;6730;46.248;6.930;2023-05-10T03:50:47;0.73;;;0.30;;
13321;SDS011;6730;46.248;6.930;2023-05-10T03:53:14;0.30;;;0.30;;
13321;SDS011;6730;46.248;6.930;2023-05-10T03:55:40;1.00;;;0.45;;
13321;SDS011;6730;46.248;6.930;2023-05-10T03:58:05;0.50;;;0.50;;
13321;SDS011;6730;46.248;6.930;2023-05-10T04:00:31;0.52;;;0.30;;
13321;SDS011;6730;46.248;6.930;2023-05-10T04:02:57;0.70;;;0.50;;
13321;SDS011;6730;46.248;6.930;2023-05-10T04:05:23;1.25;;;0.40;;
13321;SDS011;6730;46.248;6.930;2023-05-10T04:07:50;0.40;;;0.40;;
13321;SDS011;6730;46.248;6.930;2023-05-10T04:10:16;0.80;;;0.57;;
13321;SDS011;6730;46.248;6.930;2023-05-10T04:12:47;0.50;;;0.50;;
13321;SDS011;6730;46.248;6.930;2023-05-10T04:15:12;2.95;;;0.60;;
13321;SDS011;6730;46.248;6.930;2023-05-10T04:17:38;0.50;;;0.50;;
13321;SDS011;6730;46.248;6.930;2023-05-10T04:20:04;0.40;;;0.40;;
13321;SDS011;6730;46.248;6.930;2023-05-10T04:22:31;1.25;;;0.50;;
13321;SDS011;6730;46.248;6.930;2023-05-10T04:24:57;0.63;;;0.60;;
13321;SDS011;6730;46.248;6.930;2023-05-10T04:27:22;0.40;;;0.40;;
13321;SDS011;6730;46.248;6.930;2023-05-10T04:29:48;0.93;;;0.50;;
13321;SDS011;6730;46.248;6.930;2023-05-10T04:32:14;0.55;;;0.40;;
13321;SDS011;6730;46.248;6.930;2023-05-10T04:34:41;1.80;;;0.40;;
13321;SDS011;6730;46.248;6.930;2023-05-10T04:37:06;0.60;;;0.50;;
13321;SDS011;6730;46.248;6.930;2023-05-10T04:39:32;0.38;;;0.38;;
13321;SDS011;6730;46.248;6.930;2023-05-10T04:41:58;0.50;;;0.50;;
13321;SDS011;6730;46.248;6.930;2023-05-10T04:44:23;1.38;;;0.63;;
13321;SDS011;6730;46.248;6.930;2023-05-10T04:46:49;0.60;;;0.60;;
13321;SDS011;6730;46.248;6.930;2023-05-10T04:49:15;0.63;;;0.63;;
13321;SDS011;6730;46.248;6.930;2023-05-10T04:51:41;1.65;;;0.73;;
13321;SDS011;6730;46.248;6.930;2023-05-10T04:54:07;0.60;;;0.50;;
13321;SDS011;6730;46.248;6.930;2023-05-10T04:56:33;0.47;;;0.43;;
13321;SDS011;6730;46.248;6.930;2023-05-10T04:58:59;2.45;;;0.55;;
13321;SDS011;6730;46.248;6.930;2023-05-10T05:01:24;0.93;;;0.63;;
13321;SDS011;6730;46.248;6.930;2023-05-10T05:03:50;0.77;;;0.77;;
13321;SDS011;6730;46.248;6.930;2023-05-10T05:06:17;0.65;;;0.65;;
13321;SDS011;6730;46.248;6.930;2023-05-10T05:08:43;0.75;;;0.75;;
13321;SDS011;6730;46.248;6.930;2023-05-10T05:11:09;0.68;;;0.68;;
13321;SDS011;6730;46.248;6.930;2023-05-10T05:13:34;2.00;;;1.60;;
13321;SDS011;6730;46.248;6.930;2023-05-10T05:16:03;1.13;;;1.00;;
13321;SDS011;6730;46.248;6.930;2023-05-10T05:18:30;1.02;;;0.80;;
13321;SDS011;6730;46.248;6.930;2023-05-10T05:20:55;1.40;;;1.00;;
13321;SDS011;6730;46.248;6.930;2023-05-10T05:23:21;1.73;;;1.08;;
13321;SDS011;6730;46.248;6.930;2023-05-10T05:25:50;1.33;;;1.00;;
13321;SDS011;6730;46.248;6.930;2023-05-10T05:28:17;1.08;;;0.98;;
13321;SDS011;6730;46.248;6.930;2023-05-10T05:30:43;1.55;;;1.02;;
13321;SDS011;6730;46.248;6.930;2023-05-10T05:33:08;0.73;;;0.70;;
13321;SDS011;6730;46.248;6.930;2023-05-10T05:35:34;0.70;;;0.70;;
13321;SDS011;6730;46.248;6.930;2023-05-10T05:37:59;0.70;;;0.70;;
13321;SDS011;6730;46.248;6.930;2023-05-10T05:40:25;1.35;;;0.73;;
13321;SDS011;6730;46.248;6.930;2023-05-10T05:42:51;0.90;;;0.80;;
13321;SDS011;6730;46.248;6.930;2023-05-10T05:45:17;0.77;;;0.60;;
13321;SDS011;6730;46.248;6.930;2023-05-10T05:47:43;0.50;;;0.50;;
13321;SDS011;6730;46.248;6.930;2023-05-10T05:50:08;0.60;;;0.60;;
13321;SDS011;6730;46.248;6.930;2023-05-10T05:52:34;1.13;;;0.60;;
13321;SDS011;6730;46.248;6.930;2023-05-10T05:55:01;1.73;;;0.90;;
13321;SDS011;6730;46.248;6.930;2023-05-10T05:57:26;0.60;;;0.60;;
13321;SDS011;6730;46.248;6.930;2023-05-10T05:59:52;4.45;;;0.98;;
13321;SDS011;6730;46.248;6.930;2023-05-10T06:02:18;1.92;;;0.90;;
13321;SDS011;6730;46.248;6.930;2023-05-10T06:04:43;1.10;;;0.70;;
13321;SDS011;6730;46.248;6.930;2023-05-10T06:07:09;3.60;;;0.80;;
13321;SDS011;6730;46.248;6.930;2023-05-10T06:09:35;0.73;;;0.57;;
13321;SDS011;6730;46.248;6.930;2023-05-10T06:12:00;1.63;;;1.02;;
13321;SDS011;6730;46.248;6.930;2023-05-10T06:14:26;0.90;;;0.90;;
13321;SDS011;6730;46.248;6.930;2023-05-10T06:16:52;0.80;;;0.80;;
13321;SDS011;6730;46.248;6.930;2023-05-10T06:19:18;2.33;;;0.82;;
13321;SDS011;6730;46.248;6.930;2023-05-10T06:21:43;1.30;;;0.80;;
13321;SDS011;6730;46.248;6.930;2023-05-10T06:24:09;1.15;;;0.90;;
13321;SDS011;6730;46.248;6.930;2023-05-10T06:26:35;1.15;;;1.02;;
13321;SDS011;6730;46.248;6.930;2023-05-10T06:29:01;2.58;;;1.20;;
13321;SDS011;6730;46.248;6.930;2023-05-10T06:31:26;1.00;;;0.77;;
13321;SDS011;6730;46.248;6.930;2023-05-10T06:33:52;2.15;;;1.48;;
13321;SDS011;6730;46.248;6.930;2023-05-10T06:36:18;1.38;;;1.20;;
13321;SDS011;6730;46.248;6.930;2023-05-10T06:38:43;2.25;;;1.10;;
13321;SDS011;6730;46.248;6.930;2023-05-10T06:41:09;2.63;;;1.00;;
13321;SDS011;6730;46.248;6.930;2023-05-10T06:43:35;1.88;;;0.88;;
13321;SDS011;6730;46.248;6.930;2023-05-10T06:46:02;3.33;;;0.93;;
13321;SDS011;6730;46.248;6.930;2023-05-10T06:48:27;1.77;;;1.20;;
13321;SDS011;6730;46.248;6.930;2023-05-10T06:50:53;1.38;;;1.08;;
13321;SDS011;6730;46.248;6.930;2023-05-10T06:53:19;3.85;;;1.20;;
13321;SDS011;6730;46.248;6.930;2023-05-10T06:55:45;1.00;;;0.80;;
13321;SDS011;6730;46.248;6.930;2023-05-10T06:58:11;2.70;;;1.20;;
13321;SDS011;6730;46.248;6.930;2023-05-10T07:00:37;1.70;;;1.23;;
13321;SDS011;6730;46.248;6.930;2023-05-10T07:03:05;1.00;;;0.95;;
13321;SDS011;6730;46.248;6.930;2023-05-10T07:05:31;1.85;;;1.20;;
13321;SDS011;6730;46.248;6.930;2023-05-10T07:07:56;2.15;;;1.10;;
13321;SDS011;6730;46.248;6.930;2023-05-10T07:10:22;2.17;;;1.02;;
13321;SDS011;6730;46.248;6.930;2023-05-10T07:12:48;1.65;;;1.13;;
13321;SDS011;6730;46.248;6.930;2023-05-10T07:15:13;3.17;;;1.00;;
13321;SDS011;6730;46.248;6.930;2023-05-10T07:17:40;1.45;;;1.10;;
13321;SDS011;6730;46.248;6.930;2023-05-10T07:20:06;1.45;;;1.00;;
13321;SDS011;6730;46.248;6.930;2023-05-10T07:22:32;2.28;;;1.15;;
13321;SDS011;6730;46.248;6.930;2023-05-10T07:24:58;1.58;;;1.00;;
13321;SDS011;6730;46.248;6.930;2023-05-10T07:27:24;1.73;;;1.00;;
13321;SDS011;6730;46.248;6.930;2023-05-10T07:29:50;1.33;;;1.00;;
13321;SDS011;6730;46.248;6.930;2023-05-10T07:32:15;2.15;;;1.30;;
13321;SDS011;6730;46.248;6.930;2023-05-10T07:34:41;1.92;;;1.00;;
13321;SDS011;6730;46.248;6.930;2023-05-10T07:37:07;2.10;;;1.45;;
13321;SDS011;6730;46.248;6.930;2023-05-10T07:39:32;3.30;;;1.10;;
13321;SDS011;6730;46.248;6.930;2023-05-10T07:41:58;1.88;;;1.10;;
13321;SDS011;6730;46.248;6.930;2023-05-10T07:44:24;1.27;;;1.17;;
13321;SDS011;6730;46.248;6.930;2023-05-10T07:46:49;4.10;;;1.05;;
13321;SDS011;6730;46.248;6.930;2023-05-10T07:49:15;1.65;;;1.00;;
13321;SDS011;6730;46.248;6.930;2023-05-10T07:51:41;1.20;;;1.00;;
13321;SDS011;6730;46.248;6.930;2023-05-10T07:54:07;1.40;;;0.95;;
13321;SDS011;6730;46.248;6.930;2023-05-10T07:56:33;4.50;;;1.00;;
13321;SDS011;6730;46.248;6.930;2023-05-10T07:58:59;1.67;;;1.15;;
13321;SDS011;6730;46.248;6.930;2023-05-10T08:01:26;2.15;;;0.90;;
13321;SDS011;6730;46.248;6.930;2023-05-10T08:03:54;1.42;;;1.00;;
13321;SDS011;6730;46.248;6.930;2023-05-10T08:06:20;0.85;;;0.85;;
13321;SDS011;6730;46.248;6.930;2023-05-10T08:08:46;1.38;;;0.90;;
13321;SDS011;6730;46.248;6.930;2023-05-10T08:11:18;2.05;;;1.10;;
13321;SDS011;6730;46.248;6.930;2023-05-10T08:13:44;1.40;;;1.30;;
13321;SDS011;6730;46.248;6.930;2023-05-10T08:16:10;1.20;;;1.10;;
13321;SDS011;6730;46.248;6.930;2023-05-10T08:18:36;1.40;;;1.10;;
13321;SDS011;6730;46.248;6.930;2023-05-10T08:21:02;1.17;;;0.98;;
13321;SDS011;6730;46.248;6.930;2023-05-10T08:23:28;1.10;;;0.90;;
13321;SDS011;6730;46.248;6.930;2023-05-10T08:25:54;2.08;;;1.17;;
13321;SDS011;6730;46.248;6.930;2023-05-10T08:28:19;1.20;;;1.00;;
13321;SDS011;6730;46.248;6.930;2023-05-10T08:30:45;2.15;;;1.25;;
13321;SDS011;6730;46.248;6.930;2023-05-10T08:33:10;1.38;;;1.15;;
13321;SDS011;6730;46.248;6.930;2023-05-10T08:35:36;4.82;;;1.05;;
13321;SDS011;6730;46.248;6.930;2023-05-10T08:38:02;2.00;;;1.30;;
13321;SDS011;6730;46.248;6.930;2023-05-10T08:40:27;3.10;;;1.10;;
13321;SDS011;6730;46.248;6.930;2023-05-10T08:43:04;1.20;;;1.10;;
13321;SDS011;6730;46.248;6.930;2023-05-10T08:45:32;1.63;;;1.20;;
13321;SDS011;6730;46.248;6.930;2023-05-10T08:48:01;2.15;;;1.10;;
13321;SDS011;6730;46.248;6.930;2023-05-10T08:50:27;1.95;;;1.10;;
13321;SDS011;6730;46.248;6.930;2023-05-10T08:52:55;1.10;;;1.00;;
13321;SDS011;6730;46.248;6.930;2023-05-10T08:55:25;2.45;;;1.23;;
13321;SDS011;6730;46.248;6.930;2023-05-10T08:57:50;3.53;;;1.13;;
13321;SDS011;6730;46.248;6.930;2023-05-10T09:00:16;2.17;;;1.00;;
13321;SDS011;6730;46.248;6.930;2023-05-10T09:02:43;1.42;;;1.00;;
13321;SDS011;6730;46.248;6.930;2023-05-10T09:05:10;0.88;;;0.80;;
13321;SDS011;6730;46.248;6.930;2023-05-10T09:07:37;1.23;;;0.80;;
13321;SDS011;6730;46.248;6.930;2023-05-10T09:10:02;1.33;;;0.93;;
13321;SDS011;6730;46.248;6.930;2023-05-10T09:12:29;4.10;;;1.20;;
13321;SDS011;6730;46.248;6.930;2023-05-10T09:14:55;1.00;;;0.80;;
13321;SDS011;6730;46.248;6.930;2023-05-10T09:17:24;2.00;;;1.08;;
13321;SDS011;6730;46.248;6.930;2023-05-10T09:20:01;1.90;;;1.20;;
13321;SDS011;6730;46.248;6.930;2023-05-10T09:22:29;2.85;;;1.33;;
13321;SDS011;6730;46.248;6.930;2023-05-10T09:27:30;2.55;;;0.93;;
13321;SDS011;6730;46.248;6.930;2023-05-10T09:29:56;1.30;;;1.10;;
13321;SDS011;6730;46.248;6.930;2023-05-10T09:32:22;1.40;;;1.05;;
13321;SDS011;6730;46.248;6.930;2023-05-10T09:35:08;1.00;;;0.90;;
13321;SDS011;6730;46.248;6.930;2023-05-10T09:37:39;1.13;;;0.90;;
13321;SDS011;6730;46.248;6.930;2023-05-10T09:40:10;1.15;;;1.05;;
13321;SDS011;6730;46.248;6.930;2023-05-10T09:42:38;1.20;;;1.10;;
13321;SDS011;6730;46.248;6.930;2023-05-10T09:45:04;3.13;;;1.10;;
13321;SDS011;6730;46.248;6.930;2023-05-10T09:47:33;4.03;;;1.70;;
13321;SDS011;6730;46.248;6.930;2023-05-10T09:50:00;1.60;;;1.30;;
13321;SDS011;6730;46.248;6.930;2023-05-10T09:55:19;1.55;;;1.05;;
13321;SDS011;6730;46.248;6.930;2023-05-10T09:57:49;1.85;;;1.50;;
13321;SDS011;6730;46.248;6.930;2023-05-10T10:00:23;3.67;;;1.73;;
13321;SDS011;6730;46.248;6.930;2023-05-10T10:02:59;3.08;;;1.40;;
13321;SDS011;6730;46.248;6.930;2023-05-10T10:05:43;1.63;;;1.35;;
13321;SDS011;6730;46.248;6.930;2023-05-10T10:08:10;1.77;;;1.30;;
13321;SDS011;6730;46.248;6.930;2023-05-10T10:10:37;2.80;;;1.10;;
13321;SDS011;6730;46.248;6.930;2023-05-10T10:13:05;2.83;;;1.30;;
13321;SDS011;6730;46.248;6.930;2023-05-10T10:15:32;1.70;;;1.20;;
13321;SDS011;6730;46.248;6.930;2023-05-10T10:17:58;1.38;;;1.20;;
13321;SDS011;6730;46.248;6.930;2023-05-10T10:20:25;2.03;;;1.10;;
13321;SDS011;6730;46.248;6.930;2023-05-10T10:22:51;3.28;;;1.45;;
13321;SDS011;6730;46.248;6.930;2023-05-10T10:25:18;1.65;;;1.27;;
13321;SDS011;6730;46.248;6.930;2023-05-10T10:35:43;1.38;;;1.20;;
13321;SDS011;6730;46.248;6.930;2023-05-10T10:38:12;1.75;;;1.33;;
13321;SDS011;6730;46.248;6.930;2023-05-10T10:40:38;1.90;;;1.08;;
13321;SDS011;6730;46.248;6.930;2023-05-10T10:48:52;1.75;;;0.77;;
13321;SDS011;6730;46.248;6.930;2023-05-10T10:51:37;1.33;;;1.05;;
13321;SDS011;6730;46.248;6.930;2023-05-10T10:54:09;1.70;;;0.90;;
13321;SDS011;6730;46.248;6.930;2023-05-10T10:56:35;1.90;;;1.20;;
13321;SDS011;6730;46.248;6.930;2023-05-10T10:59:01;1.70;;;1.30;;
13321;SDS011;6730;46.248;6.930;2023-05-10T11:01:27;1.33;;;1.20;;
13321;SDS011;6730;46.248;6.930;2023-05-10T11:06:32;1.20;;;1.10;;
13321;SDS011;6730;46.248;6.930;2023-05-10T11:09:08;1.35;;;1.20;;
13321;SDS011;6730;46.248;6.930;2023-05-10T11:11:37;6.57;;;1.33;;
13321;SDS011;6730;46.248;6.930;2023-05-10T11:14:14;3.72;;;1.83;;
13321;SDS011;6730;46.248;6.930;2023-05-10T11:16:46;1.55;;;1.25;;
13321;SDS011;6730;46.248;6.930;2023-05-10T11:19:12;1.98;;;1.27;;
13321;SDS011;6730;46.248;6.930;2023-05-10T11:21:46;2.95;;;1.33;;
13321;SDS011;6730;46.248;6.930;2023-05-10T11:24:17;2.53;;;1.23;;
13321;SDS011;6730;46.248;6.930;2023-05-10T11:26:44;2.83;;;1.20;;
13321;SDS011;6730;46.248;6.930;2023-05-10T11:29:10;2.53;;;1.48;;
13321;SDS011;6730;46.248;6.930;2023-05-10T11:31:41;2.95;;;1.90;;
13321;SDS011;6730;46.248;6.930;2023-05-10T11:34:09;3.53;;;1.40;;
13321;SDS011;6730;46.248;6.930;2023-05-10T11:36:35;2.83;;;1.40;;
13321;SDS011;6730;46.248;6.930;2023-05-10T11:39:01;1.67;;;1.23;;
13321;SDS011;6730;46.248;6.930;2023-05-10T11:41:28;2.58;;;1.20;;
13321;SDS011;6730;46.248;6.930;2023-05-10T11:43:56;1.80;;;1.30;;
13321;SDS011;6730;46.248;6.930;2023-05-10T11:46:26;1.45;;;1.35;;
13321;SDS011;6730;46.248;6.930;2023-05-10T11:48:54;2.90;;;1.27;;
13321;SDS011;6730;46.248;6.930;2023-05-10T11:51:28;3.58;;;1.20;;
13321;SDS011;6730;46.248;6.930;2023-05-10T11:53:57;3.65;;;1.45;;
13321;SDS011;6730;46.248;6.930;2023-05-10T11:56:23;2.33;;;1.15;;
13321;SDS011;6730;46.248;6.930;2023-05-10T11:58:57;1.35;;;1.10;;
13321;SDS011;6730;46.248;6.930;2023-05-10T12:01:26;2.63;;;1.27;;
13321;SDS011;6730;46.248;6.930;2023-05-10T12:03:53;2.85;;;1.45;;
13321;SDS011;6730;46.248;6.930;2023-05-10T12:06:20;1.70;;;1.40;;
13321;SDS011;6730;46.248;6.930;2023-05-10T12:08:46;1.60;;;1.35;;
13321;SDS011;6730;46.248;6.930;2023-05-10T12:11:17;2.15;;;1.48;;
13321;SDS011;6730;46.248;6.930;2023-05-10T12:13:43;2.92;;;1.30;;
13321;SDS011;6730;46.248;6.930;2023-05-10T12:16:15;1.83;;;1.10;;
13321;SDS011;6730;46.248;6.930;2023-05-10T12:18:48;3.55;;;1.20;;
13321;SDS011;6730;46.248;6.930;2023-05-10T12:21:16;2.85;;;1.40;;
13321;SDS011;6730;46.248;6.930;2023-05-10T12:23:45;3.17;;;1.67;;
13321;SDS011;6730;46.248;6.930;2023-05-10T12:26:11;4.78;;;1.30;;
13321;SDS011;6730;46.248;6.930;2023-05-10T12:28:37;3.22;;;1.38;;
13321;SDS011;6730;46.248;6.930;2023-05-10T12:31:06;3.05;;;1.42;;
13321;SDS011;6730;46.248;6.930;2023-05-10T12:33:39;3.03;;;1.50;;
13321;SDS011;6730;46.248;6.930;2023-05-10T12:36:09;3.88;;;1.33;;
13321;SDS011;6730;46.248;6.930;2023-05-10T12:41:07;2.53;;;1.42;;
13321;SDS011;6730;46.248;6.930;2023-05-10T12:43:37;2.65;;;1.40;;
13321;SDS011;6730;46.248;6.930;2023-05-10T12:46:24;1.45;;;1.20;;
13321;SDS011;6730;46.248;6.930;2023-05-10T12:48:52;1.92;;;1.45;;
13321;SDS011;6730;46.248;6.930;2023-05-10T12:51:19;3.22;;;1.38;;
13321;SDS011;6730;46.248;6.930;2023-05-10T12:53:47;2.45;;;1.10;;
13321;SDS011;6730;46.248;6.930;2023-05-10T12:56:13;1.85;;;1.48;;
13321;SDS011;6730;46.248;6.930;2023-05-10T12:58:38;1.67;;;1.38;;
13321;SDS011;6730;46.248;6.930;2023-05-10T13:01:04;4.38;;;1.27;;
13321;SDS011;6730;46.248;6.930;2023-05-10T13:03:30;3.47;;;1.23;;
13321;SDS011;6730;46.248;6.930;2023-05-10T13:05:56;3.22;;;1.95;;
13321;SDS011;6730;46.248;6.930;2023-05-10T13:08:21;2.65;;;1.33;;
13321;SDS011;6730;46.248;6.930;2023-05-10T13:10:47;1.40;;;1.30;;
13321;SDS011;6730;46.248;6.930;2023-05-10T13:13:13;5.53;;;1.50;;
13321;SDS011;6730;46.248;6.930;2023-05-10T13:15:40;1.92;;;1.20;;
13321;SDS011;6730;46.248;6.930;2023-05-10T13:18:05;3.83;;;1.42;;
13321;SDS011;6730;46.248;6.930;2023-05-10T13:20:31;2.25;;;1.48;;
13321;SDS011;6730;46.248;6.930;2023-05-10T13:22:57;2.90;;;1.65;;
13321;SDS011;6730;46.248;6.930;2023-05-10T13:25:22;2.33;;;1.35;;
13321;SDS011;6730;46.248;6.930;2023-05-10T13:27:48;1.90;;;1.38;;
13321;SDS011;6730;46.248;6.930;2023-05-10T13:30:14;3.17;;;1.33;;
13321;SDS011;6730;46.248;6.930;2023-05-10T13:32:40;2.28;;;1.45;;
13321;SDS011;6730;46.248;6.930;2023-05-10T13:35:05;2.88;;;1.60;;
13321;SDS011;6730;46.248;6.930;2023-05-10T13:37:32;1.67;;;1.40;;
13321;SDS011;6730;46.248;6.930;2023-05-10T13:40:00;3.22;;;1.77;;
13321;SDS011;6730;46.248;6.930;2023-05-10T13:42:26;2.17;;;1.33;;
13321;SDS011;6730;46.248;6.930;2023-05-10T13:44:52;2.47;;;1.30;;
13321;SDS011;6730;46.248;6.930;2023-05-10T13:47:17;2.58;;;1.60;;
13321;SDS011;6730;46.248;6.930;2023-05-10T13:49:43;2.40;;;1.70;;
13321;SDS011;6730;46.248;6.930;2023-05-10T13:52:09;3.72;;;1.38;;
13321;SDS011;6730;46.248;6.930;2023-05-10T13:54:37;0.93;;;0.90;;
13321;SDS011;6730;46.248;6.930;2023-05-10T13:57:03;3.25;;;1.20;;
13321;SDS011;6730;46.248;6.930;2023-05-10T13:59:29;1.90;;;1.10;;
13321;SDS011;6730;46.248;6.930;2023-05-10T14:01:58;1.73;;;0.88;;
13321;SDS011;6730;46.248;6.930;2023-05-10T14:04:25;1.52;;;1.02;;
13321;SDS011;6730;46.248;6.930;2023-05-10T14:06:50;2.40;;;1.00;;
13321;SDS011;6730;46.248;6.930;2023-05-10T14:09:17;1.85;;;1.20;;
13321;SDS011;6730;46.248;6.930;2023-05-10T14:11:43;2.35;;;1.20;;
13321;SDS011;6730;46.248;6.930;2023-05-10T14:14:10;0.95;;;0.80;;
13321;SDS011;6730;46.248;6.930;2023-05-10T14:16:36;2.55;;;1.35;;
13321;SDS011;6730;46.248;6.930;2023-05-10T14:19:02;1.27;;;1.17;;
13321;SDS011;6730;46.248;6.930;2023-05-10T14:21:27;3.60;;;1.27;;
13321;SDS011;6730;46.248;6.930;2023-05-10T14:23:55;2.67;;;0.90;;
13321;SDS011;6730;46.248;6.930;2023-05-10T14:26:21;1.85;;;0.95;;
13321;SDS011;6730;46.248;6.930;2023-05-10T14:28:47;2.95;;;1.00;;
13321;SDS011;6730;46.248;6.930;2023-05-10T14:31:13;1.10;;;1.00;;
13321;SDS011;6730;46.248;6.930;2023-05-10T14:33:39;1.42;;;0.90;;
13321;SDS011;6730;46.248;6.930;2023-05-10T14:36:05;3.03;;;1.00;;
13321;SDS011;6730;46.248;6.930;2023-05-10T14:38:31;2.30;;;1.00;;
13321;SDS011;6730;46.248;6.930;2023-05-10T14:40:57;0.80;;;0.80;;
13321;SDS011;6730;46.248;6.930;2023-05-10T14:43:23;1.38;;;1.00;;
13321;SDS011;6730;46.248;6.930;2023-05-10T14:45:49;2.33;;;1.08;;
13321;SDS011;6730;46.248;6.930;2023-05-10T14:48:15;1.75;;;1.33;;
13321;SDS011;6730;46.248;6.930;2023-05-10T14:50:42;0.70;;;0.70;;
13321;SDS011;6730;46.248;6.930;2023-05-10T14:53:08;1.17;;;0.75;;
13321;SDS011;6730;46.248;6.930;2023-05-10T14:55:34;1.08;;;0.98;;
13321;SDS011;6730;46.248;6.930;2023-05-10T14:58:01;2.13;;;1.55;;
13321;SDS011;6730;46.248;6.930;2023-05-10T15:00:28;1.08;;;0.98;;
13321;SDS011;6730;46.248;6.930;2023-05-10T15:02:54;2.35;;;0.80;;
13321;SDS011;6730;46.248;6.930;2023-05-10T15:05:20;1.00;;;0.82;;
13321;SDS011;6730;46.248;6.930;2023-05-10T15:07:45;1.17;;;0.90;;
13321;SDS011;6730;46.248;6.930;2023-05-10T15:10:11;1.33;;;0.85;;
13321;SDS011;6730;46.248;6.930;2023-05-10T15:12:37;0.65;;;0.63;;
13321;SDS011;6730;46.248;6.930;2023-05-10T15:15:04;1.75;;;0.70;;
13321;SDS011;6730;46.248;6.930;2023-05-10T15:17:30;2.38;;;0.93;;
13321;SDS011;6730;46.248;6.930;2023-05-10T15:19:56;2.63;;;1.05;;
13321;SDS011;6730;46.248;6.930;2023-05-10T15:22:22;1.00;;;0.80;;
13321;SDS011;6730;46.248;6.930;2023-05-10T15:24:47;2.50;;;1.00;;
13321;SDS011;6730;46.248;6.930;2023-05-10T15:27:13;2.28;;;1.00;;
13321;SDS011;6730;46.248;6.930;2023-05-10T15:29:39;4.68;;;0.90;;
13321;SDS011;6730;46.248;6.930;2023-05-10T15:32:04;2.38;;;1.13;;
13321;SDS011;6730;46.248;6.930;2023-05-10T15:34:30;2.08;;;0.93;;
13321;SDS011;6730;46.248;6.930;2023-05-10T15:36:56;7.07;;;3.03;;
13321;SDS011;6730;46.248;6.930;2023-05-10T15:39:21;13.00;;;8.90;;
13321;SDS011;6730;46.248;6.930;2023-05-10T15:41:47;5.90;;;4.40;;
13321;SDS011;6730;46.248;6.930;2023-05-10T15:44:13;3.30;;;2.97;;